Weather at Aurillac Airport

Public forecast

Using degrees Celsius for public forecast. Weather courtesy of forecast.io.

Current aviation weather report (METAR) for Aurillac Airport

Report is more than 6 hours old.

2022/11/14 15:30 (retrieved 2 years ago)

LFLW 141530Z AUTO 22005KT 180V260 9999 BKN007/// OVC012/// ///CB 12/11 Q1016 TEMPO 3000 RA

Closest aviation forecast (TAF) to Aurillac Airport

Forecast is more than 12 hours old.

Closest forecast is Rodez-Marcillac Airport, 29.1 nm (54.0 km) S.

2023/02/22 18:49 (retrieved 1 year ago)

TAF LFCR 221700Z 2218/2318 VRB03KT 8000 BKN008 BECMG 2218/2221 3000 BR TEMPO 2221/2306 0800 FG OVC002 BECMG 2306/2308 9999 SCT020 BKN040 BECMG 2308/2310 13010KT BECMG 2311/2313 BKN013